createdAt,value
2023-01-07T00:01:44.245Z,1.37
2023-01-07T00:04:22.687Z,1.13
2023-01-07T00:07:01.607Z,0.87
2023-01-07T00:09:39.250Z,0.90
2023-01-07T00:12:16.588Z,0.67
2023-01-07T00:14:45.373Z,1.00
2023-01-07T00:17:14.456Z,0.70
2023-01-07T00:19:52.248Z,0.93
2023-01-07T00:22:23.305Z,0.70
2023-01-07T00:25:05.815Z,0.57
2023-01-07T00:27:50.639Z,0.80
2023-01-07T00:30:21.027Z,1.00
2023-01-07T00:33:02.153Z,1.07
2023-01-07T00:35:34.785Z,0.90
2023-01-07T00:38:07.187Z,0.67
2023-01-07T00:40:37.800Z,0.77
2023-01-07T00:43:06.993Z,0.97
2023-01-07T00:45:37.493Z,0.70
2023-01-07T00:48:09.233Z,0.63
2023-01-07T00:50:59.368Z,0.80
2023-01-07T00:53:31.593Z,1.00
2023-01-07T00:56:02.487Z,1.10
2023-01-07T00:58:31.620Z,0.90
2023-01-07T01:01:01.161Z,0.80
2023-01-07T01:03:34.816Z,1.10
2023-01-07T01:06:06.811Z,0.93
2023-01-07T01:08:41.759Z,0.90
2023-01-07T01:11:14.068Z,0.87
2023-01-07T01:13:48.678Z,1.90
2023-01-07T01:16:31.422Z,0.80
2023-01-07T01:19:01.586Z,0.90
2023-01-07T01:21:33.224Z,0.90
2023-01-07T01:24:05.529Z,0.90
2023-01-07T01:26:34.187Z,1.00
2023-01-07T01:29:08.022Z,1.67
2023-01-07T01:31:39.082Z,1.13
2023-01-07T01:34:18.920Z,1.50
2023-01-07T01:36:51.341Z,1.30
2023-01-07T01:39:20.977Z,1.53
2023-01-07T01:41:50.812Z,1.20
2023-01-07T01:44:38.727Z,0.90
2023-01-07T01:47:09.402Z,0.90
2023-01-07T01:49:42.603Z,1.10
2023-01-07T01:52:16.122Z,1.00
2023-01-07T01:54:48.757Z,1.30
2023-01-07T01:57:20.385Z,0.70
2023-01-07T01:59:54.321Z,0.90
2023-01-07T02:02:26.890Z,1.23
2023-01-07T02:04:56.196Z,1.27
2023-01-07T02:07:26.463Z,1.57
2023-01-07T02:10:00.904Z,0.90
2023-01-07T02:12:48.343Z,1.00
2023-01-07T02:15:20.637Z,1.07
2023-01-07T02:18:05.549Z,1.10
2023-01-07T02:20:51.226Z,1.20
2023-01-07T02:23:44.480Z,0.83
2023-01-07T02:26:43.312Z,1.00
2023-01-07T02:29:29.861Z,0.60
2023-01-07T02:32:11.740Z,1.07
2023-01-07T02:34:42.439Z,0.80
2023-01-07T02:37:16.674Z,0.90
2023-01-07T02:39:51.102Z,0.90
2023-01-07T02:42:24.694Z,0.80
2023-01-07T02:44:57.219Z,0.73
2023-01-07T02:47:30.184Z,1.00
2023-01-07T02:49:58.808Z,0.87
2023-01-07T02:52:28.623Z,1.00
2023-01-07T02:55:00.486Z,1.13
2023-01-07T02:57:44.620Z,1.17
2023-01-07T03:00:27.485Z,0.87
2023-01-07T03:03:26.016Z,0.63
2023-01-07T03:06:00.326Z,0.77
2023-01-07T03:08:37.560Z,0.90
2023-01-07T03:11:07.538Z,0.90
2023-01-07T03:13:40.953Z,0.87
2023-01-07T03:16:11.119Z,1.00
2023-01-07T03:18:48.168Z,1.13
2023-01-07T03:21:19.026Z,0.80
2023-01-07T03:23:49.758Z,0.87
2023-01-07T03:26:20.958Z,0.70
2023-01-07T03:28:51.614Z,0.90
2023-01-07T03:31:22.992Z,0.70
2023-01-07T03:33:54.743Z,0.97
2023-01-07T03:36:25.570Z,0.70
2023-01-07T03:38:59.076Z,0.77
2023-01-07T03:41:45.569Z,0.70
2023-01-07T03:44:15.654Z,0.90
2023-01-07T03:46:48.732Z,0.93
2023-01-07T03:49:21.266Z,0.87
2023-01-07T03:51:51.251Z,0.83
2023-01-07T03:54:25.618Z,1.00
2023-01-07T03:56:54.362Z,0.70
2023-01-07T03:59:24.284Z,1.07
2023-01-07T04:01:55.489Z,0.90
2023-01-07T04:04:38.388Z,0.90
2023-01-07T04:07:07.084Z,0.97
2023-01-07T04:09:35.512Z,0.97
2023-01-07T04:12:04.052Z,0.73
2023-01-07T04:14:34.976Z,1.17
2023-01-07T04:17:03.851Z,0.80
2023-01-07T04:19:34.710Z,0.70
2023-01-07T04:22:03.388Z,0.90
2023-01-07T04:24:33.736Z,0.40
2023-01-07T04:27:04.343Z,0.73
2023-01-07T04:29:33.057Z,0.50
2023-01-07T04:32:01.886Z,0.73
2023-01-07T04:34:32.274Z,0.77
2023-01-07T04:37:02.372Z,0.40
2023-01-07T04:39:31.007Z,0.60
2023-01-07T04:41:59.509Z,0.60
2023-01-07T04:44:28.186Z,0.50
2023-01-07T04:46:57.993Z,0.63
2023-01-07T04:49:27.913Z,0.60
2023-01-07T04:51:58.866Z,0.70
2023-01-07T04:54:33.147Z,0.70
2023-01-07T04:57:01.832Z,0.60
2023-01-07T04:59:30.635Z,0.70
2023-01-07T05:02:01.295Z,0.60
2023-01-07T05:04:30.199Z,0.50
2023-01-07T05:07:11.678Z,0.50
2023-01-07T05:09:42.177Z,0.63
2023-01-07T05:12:11.224Z,0.90
2023-01-07T05:14:42.904Z,0.60
2023-01-07T05:17:11.519Z,0.80
2023-01-07T05:19:40.306Z,0.63
2023-01-07T05:22:09.154Z,0.80
2023-01-07T05:24:39.074Z,0.90
2023-01-07T05:27:09.156Z,0.60
2023-01-07T05:29:40.122Z,0.70
2023-01-07T05:32:08.764Z,0.80
2023-01-07T05:34:38.683Z,0.70
2023-01-07T05:37:08.548Z,0.80
2023-01-07T05:39:37.155Z,0.70
2023-01-07T05:42:07.221Z,0.50
2023-01-07T05:44:39.304Z,0.73
2023-01-07T05:47:09.916Z,0.77
2023-01-07T05:49:39.546Z,0.60
2023-01-07T05:52:09.820Z,0.40
2023-01-07T05:54:39.343Z,0.47
2023-01-07T05:57:07.905Z,0.77
2023-01-07T05:59:39.620Z,0.60
2023-01-07T06:02:08.732Z,0.60
2023-01-07T06:04:38.753Z,0.50
2023-01-07T06:07:07.422Z,0.77
2023-01-07T06:09:36.153Z,0.60
2023-01-07T06:12:06.750Z,0.43
2023-01-07T06:14:35.604Z,0.90
2023-01-07T06:17:08.082Z,0.70
2023-01-07T06:19:42.807Z,1.23
2023-01-07T06:22:11.959Z,0.63
2023-01-07T06:24:40.546Z,0.90
2023-01-07T06:27:11.258Z,0.50
2023-01-07T06:29:42.385Z,0.40
2023-01-07T06:32:26.462Z,0.60
2023-01-07T06:34:57.549Z,0.77
2023-01-07T06:37:27.486Z,0.90
2023-01-07T06:39:59.668Z,0.87
2023-01-07T06:42:28.427Z,0.70
2023-01-07T06:44:57.327Z,0.60
2023-01-07T06:47:32.669Z,0.70
2023-01-07T06:50:01.366Z,0.80
2023-01-07T06:52:30.123Z,0.70
2023-01-07T06:54:58.914Z,1.37
2023-01-07T06:57:27.811Z,0.40
2023-01-07T06:59:56.647Z,1.07
2023-01-07T07:02:26.500Z,0.70
2023-01-07T07:04:57.291Z,0.90
2023-01-07T07:07:25.886Z,0.90
2023-01-07T07:09:54.659Z,0.60
2023-01-07T07:12:27.331Z,0.80
2023-01-07T07:14:55.894Z,0.97
2023-01-07T07:17:24.595Z,0.70
2023-01-07T07:19:53.649Z,0.50
2023-01-07T07:22:23.839Z,0.80
2023-01-07T07:24:52.666Z,0.87
2023-01-07T07:27:21.252Z,0.60
2023-01-07T07:29:53.267Z,1.10
2023-01-07T07:32:22.060Z,1.00
2023-01-07T07:34:53.138Z,0.80
2023-01-07T07:37:23.108Z,0.70
2023-01-07T07:39:53.556Z,0.50
2023-01-07T07:42:21.983Z,0.73
2023-01-07T07:44:55.459Z,1.00
2023-01-07T07:58:17.865Z,0.70
2023-01-07T08:00:47.390Z,1.17
2023-01-07T08:03:20.837Z,0.60
2023-01-07T08:05:49.874Z,1.10
2023-01-07T08:08:23.620Z,1.67
2023-01-07T08:11:07.959Z,1.10
2023-01-07T08:13:39.166Z,1.30
2023-01-07T08:19:07.071Z,1.40
2023-01-07T08:21:37.049Z,1.30
2023-01-07T08:24:08.659Z,1.10
2023-01-07T08:26:41.712Z,1.40
2023-01-07T08:29:12.053Z,1.80
2023-01-07T08:31:48.201Z,1.37
2023-01-07T08:34:58.645Z,1.50
2023-01-07T08:37:11.724Z,1.40
2023-01-07T08:39:42.025Z,1.87
2023-01-07T08:42:19.781Z,1.30
2023-01-07T08:45:03.911Z,1.80
2023-01-07T08:47:32.879Z,1.40
2023-01-07T08:50:01.677Z,1.73
2023-01-07T08:52:31.319Z,1.50
2023-01-07T08:55:04.681Z,1.90
2023-01-07T08:57:35.266Z,1.03
2023-01-07T09:00:05.947Z,1.50
2023-01-07T09:02:34.992Z,1.53
2023-01-07T09:05:03.638Z,1.03
2023-01-07T09:07:34.003Z,1.47
2023-01-07T09:10:02.428Z,1.57
2023-01-07T09:12:31.499Z,1.57
2023-01-07T09:15:00.168Z,1.10
2023-01-07T09:17:30.550Z,1.30
2023-01-07T09:20:02.884Z,1.20
2023-01-07T09:22:32.392Z,1.23
2023-01-07T09:25:01.041Z,0.90
2023-01-07T09:27:29.590Z,1.60
2023-01-07T09:29:58.695Z,1.57
2023-01-07T09:32:27.627Z,1.20
2023-01-07T09:35:04.336Z,1.10
2023-01-07T09:37:33.304Z,1.30
2023-01-07T09:40:02.012Z,1.27
2023-01-07T09:42:36.050Z,1.10
2023-01-07T09:45:11.357Z,1.20
2023-01-07T09:47:50.531Z,1.60
2023-01-07T09:50:29.606Z,1.13
2023-01-07T09:53:00.176Z,1.60
2023-01-07T09:55:31.058Z,1.20
2023-01-07T09:58:08.765Z,1.90
2023-01-07T10:00:40.588Z,1.87
2023-01-07T10:03:16.293Z,1.30
2023-01-07T10:05:51.148Z,1.10
2023-01-07T10:08:29.230Z,1.10
2023-01-07T10:11:06.518Z,1.33
2023-01-07T10:13:47.233Z,1.30
2023-01-07T10:16:20.652Z,0.93
2023-01-07T10:18:54.631Z,1.03
2023-01-07T10:21:30.559Z,1.20
2023-01-07T10:24:10.826Z,1.00
2023-01-07T10:26:41.317Z,0.80
2023-01-07T10:29:13.339Z,1.10
2023-01-07T10:31:42.705Z,1.17
2023-01-07T10:34:29.177Z,1.10
2023-01-07T10:37:03.780Z,1.40
2023-01-07T10:39:37.755Z,1.27
2023-01-07T10:42:09.840Z,0.90
2023-01-07T10:44:56.382Z,1.17
2023-01-07T10:47:32.710Z,1.10
2023-01-07T10:50:23.188Z,0.87
2023-01-07T10:52:59.524Z,1.30
2023-01-07T10:55:40.157Z,1.30
2023-01-07T10:58:11.569Z,1.20
2023-01-07T11:00:40.817Z,1.03
2023-01-07T11:03:17.230Z,1.13
2023-01-07T11:05:47.563Z,0.70
2023-01-07T11:08:25.238Z,1.20
2023-01-07T11:10:53.662Z,0.97
2023-01-07T11:13:24.663Z,1.10
2023-01-07T11:15:55.652Z,0.90
2023-01-07T11:18:26.658Z,0.93
2023-01-07T11:20:55.871Z,1.00
2023-01-07T11:23:33.253Z,1.07
2023-01-07T11:26:12.836Z,1.23
2023-01-07T11:28:43.579Z,1.23
2023-01-07T11:31:12.021Z,1.10
2023-01-07T11:34:02.206Z,1.30
2023-01-07T11:36:40.983Z,1.00
2023-01-07T11:39:13.103Z,1.20
2023-01-07T11:41:52.872Z,0.93
2023-01-07T11:44:21.470Z,0.97
2023-01-07T11:46:50.232Z,0.70
2023-01-07T11:49:23.311Z,1.47
2023-01-07T11:51:51.749Z,1.03
2023-01-07T11:54:23.781Z,1.10
2023-01-07T11:56:54.170Z,0.97
2023-01-07T11:59:33.277Z,1.23
2023-01-07T12:02:02.017Z,0.80
2023-01-07T12:04:31.458Z,1.10
2023-01-07T12:07:02.363Z,1.10
2023-01-07T12:09:37.524Z,0.77
2023-01-07T12:12:29.134Z,1.03
2023-01-07T12:14:57.939Z,0.80
2023-01-07T12:17:27.205Z,0.83
2023-01-07T12:20:10.762Z,1.20
2023-01-07T12:22:45.280Z,0.87
2023-01-07T12:25:29.126Z,1.13
2023-01-07T12:28:02.508Z,0.93
2023-01-07T12:30:39.310Z,0.77
2023-01-07T12:33:16.011Z,0.73
2023-01-07T12:35:53.215Z,0.63
2023-01-07T12:38:32.707Z,0.90
2023-01-07T12:41:15.903Z,1.10
2023-01-07T12:43:47.287Z,0.97
2023-01-07T12:46:17.134Z,0.80
2023-01-07T12:48:50.977Z,0.70
2023-01-07T12:51:25.908Z,0.70
2023-01-07T12:54:06.547Z,0.90
2023-01-07T12:56:40.340Z,1.27
2023-01-07T12:59:47.127Z,0.60
2023-01-07T13:02:12.676Z,0.80
2023-01-07T13:04:46.218Z,1.00
2023-01-07T13:07:16.827Z,0.70
2023-01-07T13:09:47.717Z,0.73
2023-01-07T13:12:41.953Z,0.70
2023-01-07T13:15:14.464Z,1.00
2023-01-07T13:17:43.835Z,1.33
2023-01-07T13:20:16.223Z,0.80
2023-01-07T13:22:46.995Z,0.83
2023-01-07T13:25:20.844Z,0.80
2023-01-07T13:28:01.903Z,1.00
2023-01-07T13:30:34.989Z,0.73
2023-01-07T13:33:07.706Z,0.90
2023-01-07T13:35:46.428Z,0.87
2023-01-07T13:38:22.981Z,1.10
2023-01-07T13:41:09.423Z,0.63
2023-01-07T13:43:58.002Z,0.90
2023-01-07T13:46:29.939Z,0.57
2023-01-07T13:48:58.390Z,0.63
2023-01-07T13:51:28.276Z,0.87
2023-01-07T13:53:56.795Z,0.80
2023-01-07T13:56:34.800Z,1.17
2023-01-07T13:59:05.880Z,0.60
2023-01-07T14:01:34.724Z,0.77
2023-01-07T14:04:18.068Z,0.90
2023-01-07T14:06:48.489Z,0.80
2023-01-07T14:09:33.632Z,1.17
2023-01-07T14:12:18.223Z,1.20
2023-01-07T14:14:51.590Z,0.70
2023-01-07T14:17:22.995Z,0.60
2023-01-07T14:19:55.776Z,0.80
2023-01-07T14:22:29.107Z,0.70
2023-01-07T14:25:14.538Z,1.50
2023-01-07T14:27:49.332Z,0.87
2023-01-07T14:30:22.243Z,0.90
2023-01-07T14:32:58.412Z,1.03
2023-01-07T14:35:30.484Z,0.67
2023-01-07T14:38:00.990Z,1.00
2023-01-07T14:41:03.156Z,0.90
2023-01-07T14:43:48.769Z,0.70
2023-01-07T14:46:36.020Z,1.17
2023-01-07T14:49:26.160Z,0.60
2023-01-07T14:51:57.498Z,0.60
2023-01-07T14:54:41.079Z,0.73
2023-01-07T14:57:13.969Z,0.80
2023-01-07T15:00:00.407Z,0.70
2023-01-07T15:02:50.224Z,1.30
2023-01-07T15:05:37.337Z,1.43
2023-01-07T15:08:27.479Z,0.70
2023-01-07T15:11:15.117Z,1.53
2023-01-07T15:14:02.814Z,1.37
2023-01-07T15:16:32.440Z,1.43
2023-01-07T15:19:00.946Z,1.30
2023-01-07T15:21:36.117Z,0.97
2023-01-07T15:24:09.822Z,0.70
2023-01-07T15:26:43.936Z,0.80
2023-01-07T15:29:33.254Z,0.90
2023-01-07T15:32:05.576Z,1.10
2023-01-07T15:34:36.107Z,0.70
2023-01-07T15:37:06.261Z,0.93
2023-01-07T15:39:40.332Z,0.70
2023-01-07T15:42:15.157Z,0.90
2023-01-07T15:44:44.066Z,1.03
2023-01-07T15:47:31.126Z,0.80
2023-01-07T15:49:59.793Z,0.57
2023-01-07T15:52:29.232Z,0.70
2023-01-07T15:55:15.422Z,0.70
2023-01-07T15:57:44.313Z,0.63
2023-01-07T16:00:13.435Z,0.60
2023-01-07T16:02:45.713Z,1.07
2023-01-07T16:05:14.463Z,3.80
2023-01-07T16:07:51.192Z,3.40
2023-01-07T16:10:28.567Z,1.90
2023-01-07T16:12:58.153Z,2.33
2023-01-07T16:15:30.795Z,2.20
2023-01-07T16:18:00.065Z,2.13
2023-01-07T16:20:29.865Z,1.80
2023-01-07T16:23:05.068Z,0.67
2023-01-07T16:25:37.844Z,2.07
2023-01-07T16:28:06.898Z,1.37
2023-01-07T16:30:35.445Z,0.73
2023-01-07T16:33:05.797Z,1.07
2023-01-07T16:35:35.697Z,1.70
2023-01-07T16:38:04.483Z,0.90
2023-01-07T16:40:36.080Z,1.53
2023-01-07T16:43:06.938Z,0.87
2023-01-07T16:45:43.943Z,0.77
2023-01-07T16:48:19.720Z,12.97
2023-01-07T16:50:53.139Z,6.90
2023-01-07T16:53:32.368Z,3.50
2023-01-07T16:56:17.936Z,1.60
2023-01-07T16:58:52.794Z,0.87
2023-01-07T17:01:24.015Z,1.40
2023-01-07T17:03:55.347Z,0.80
2023-01-07T17:06:25.842Z,1.40
2023-01-07T17:08:56.594Z,1.43
2023-01-07T17:11:26.991Z,1.20
2023-01-07T17:13:57.038Z,1.10
2023-01-07T17:16:30.082Z,1.70
2023-01-07T17:18:59.027Z,1.73
2023-01-07T17:21:35.455Z,1.37
2023-01-07T17:24:04.295Z,1.77
2023-01-07T17:26:40.682Z,1.80
2023-01-07T17:29:14.037Z,1.50
2023-01-07T17:31:43.821Z,2.37
2023-01-07T17:34:13.444Z,1.57
2023-01-07T17:36:41.893Z,3.93
2023-01-07T17:39:10.552Z,2.40
2023-01-07T17:41:57.320Z,2.03
2023-01-07T17:44:27.823Z,3.63
2023-01-07T17:46:56.388Z,2.10
2023-01-07T17:49:25.066Z,1.20
2023-01-07T17:51:54.875Z,1.67
2023-01-07T17:54:24.501Z,1.30
2023-01-07T17:56:53.105Z,2.80
2023-01-07T17:59:22.408Z,9.37
2023-01-07T18:04:52.608Z,3.90
2023-01-07T18:07:20.997Z,4.50
2023-01-07T18:09:49.676Z,4.80
2023-01-07T18:12:30.443Z,4.10
2023-01-07T18:15:00.555Z,1.70
2023-01-07T18:17:30.640Z,4.30
2023-01-07T18:20:06.921Z,2.00
2023-01-07T18:22:35.464Z,4.30
2023-01-07T18:25:04.042Z,2.90
2023-01-07T18:27:32.646Z,3.83
2023-01-07T18:30:01.277Z,2.77
2023-01-07T18:32:31.436Z,2.03
2023-01-07T18:35:00.233Z,1.90
2023-01-07T18:37:28.788Z,2.70
2023-01-07T18:40:03.392Z,3.10
2023-01-07T18:42:33.487Z,2.73
2023-01-07T18:45:02.190Z,2.63
2023-01-07T18:47:34.274Z,1.67
2023-01-07T18:50:03.130Z,1.77
2023-01-07T18:52:33.642Z,2.00
2023-01-07T18:55:02.869Z,2.13
2023-01-07T18:57:31.517Z,4.03
2023-01-07T19:00:00.178Z,7.77
2023-01-07T19:02:29.002Z,23.50
2023-01-07T19:05:00.385Z,9.60
2023-01-07T19:07:31.410Z,7.67
2023-01-07T19:10:00.137Z,4.13
2023-01-07T19:12:29.741Z,2.90
2023-01-07T19:15:05.723Z,3.30
2023-01-07T19:20:33.218Z,7.80
2023-01-07T19:23:12.629Z,6.47
2023-01-07T19:25:41.416Z,3.40
2023-01-07T19:28:14.357Z,2.20
2023-01-07T19:30:43.287Z,2.23
2023-01-07T19:33:24.230Z,2.60
2023-01-07T19:36:03.854Z,3.40
2023-01-07T19:38:51.950Z,3.30
2023-01-07T19:41:23.005Z,4.97
2023-01-07T19:43:55.727Z,4.10
2023-01-07T19:46:25.442Z,3.33
2023-01-07T19:49:00.088Z,1.60
2023-01-07T19:51:32.771Z,2.70
2023-01-07T19:54:04.189Z,2.93
2023-01-07T19:56:40.457Z,2.23
2023-01-07T19:59:11.852Z,2.77
2023-01-07T20:01:54.962Z,2.37
2023-01-07T20:04:55.151Z,1.83
2023-01-07T20:07:34.063Z,2.80
2023-01-07T20:10:16.684Z,2.53
2023-01-07T20:12:52.176Z,2.30
2023-01-07T20:18:18.115Z,2.70
2023-01-07T20:20:59.403Z,2.70
2023-01-07T20:23:31.928Z,2.80
2023-01-07T20:26:02.377Z,2.60
2023-01-07T20:28:32.285Z,3.20
2023-01-07T20:31:12.839Z,2.80
2023-01-07T20:33:41.824Z,3.93
2023-01-07T20:36:15.343Z,3.20
2023-01-07T20:38:46.077Z,2.40
2023-01-07T20:41:18.677Z,3.07
2023-01-07T20:43:52.225Z,4.30
2023-01-07T20:46:21.352Z,4.07
2023-01-07T20:49:00.642Z,3.17
2023-01-07T20:51:32.830Z,19.70
2023-01-07T20:54:03.892Z,8.00
2023-01-07T20:56:33.172Z,7.23
2023-01-07T20:59:10.951Z,6.70
2023-01-07T21:01:44.651Z,4.80
2023-01-07T21:04:15.083Z,5.73
2023-01-07T21:06:45.111Z,3.57
2023-01-07T21:09:26.250Z,4.83
2023-01-07T21:11:55.240Z,3.80
2023-01-07T21:14:31.906Z,4.30
2023-01-07T21:17:02.253Z,4.80
2023-01-07T21:19:33.822Z,2.50
2023-01-07T21:22:04.555Z,5.23
2023-01-07T21:24:40.149Z,6.30
2023-01-07T21:27:14.950Z,5.03
2023-01-07T21:29:43.714Z,3.90
2023-01-07T21:32:17.250Z,4.90
2023-01-07T21:34:47.835Z,3.63
2023-01-07T21:37:24.565Z,3.70
2023-01-07T21:40:02.238Z,3.97
2023-01-07T21:42:43.754Z,5.90
2023-01-07T21:45:23.084Z,3.10
2023-01-07T21:47:52.415Z,3.20
2023-01-07T21:50:22.029Z,3.27
2023-01-07T21:52:51.572Z,3.40
2023-01-07T21:55:29.725Z,2.50
2023-01-07T21:57:58.874Z,3.03
2023-01-07T22:00:33.859Z,2.70
2023-01-07T22:03:10.287Z,2.40
2023-01-07T22:05:41.643Z,1.93
2023-01-07T22:08:13.608Z,2.80
2023-01-07T22:10:53.718Z,1.77
2023-01-07T22:13:33.444Z,2.00
2023-01-07T22:16:05.474Z,3.27
2023-01-07T22:18:37.189Z,2.90
2023-01-07T22:21:06.125Z,2.50
2023-01-07T22:23:40.573Z,2.80
2023-01-07T22:26:18.178Z,3.60
2023-01-07T22:28:47.922Z,4.33
2023-01-07T22:31:18.531Z,3.97
2023-01-07T22:33:47.159Z,4.53
2023-01-07T22:36:21.457Z,4.43
2023-01-07T22:38:51.535Z,3.90
2023-01-07T22:41:22.468Z,2.67
2023-01-07T22:43:51.216Z,4.03
2023-01-07T22:46:24.204Z,2.90
2023-01-07T22:48:53.135Z,2.53
2023-01-07T22:51:25.127Z,3.87
2023-01-07T22:54:08.767Z,2.70
2023-01-07T22:56:40.000Z,3.07
2023-01-07T22:59:09.177Z,3.97
2023-01-07T23:01:43.540Z,3.57
2023-01-07T23:04:13.079Z,2.43
2023-01-07T23:06:42.121Z,3.13
2023-01-07T23:09:10.915Z,3.10
2023-01-07T23:11:52.167Z,2.60
2023-01-07T23:14:21.785Z,2.80
2023-01-07T23:16:51.324Z,1.83
2023-01-07T23:19:21.910Z,2.50
2023-01-07T23:21:53.915Z,2.20
2023-01-07T23:24:23.063Z,2.23
2023-01-07T23:26:55.007Z,2.60
2023-01-07T23:29:23.752Z,2.07
2023-01-07T23:31:52.347Z,2.13
2023-01-07T23:34:21.870Z,1.70
2023-01-07T23:36:51.153Z,2.40
2023-01-07T23:39:19.801Z,2.10
2023-01-07T23:41:48.508Z,2.37
2023-01-07T23:44:22.768Z,1.80
2023-01-07T23:46:52.996Z,2.40
2023-01-07T23:49:21.938Z,1.93
2023-01-07T23:51:57.221Z,2.07
2023-01-07T23:54:26.081Z,1.87
2023-01-07T23:56:55.101Z,2.13
2023-01-07T23:59:29.918Z,3.17
